createdAt,value
2022-11-01T00:01:06.972Z,4.90
2022-11-01T00:03:33.904Z,4.57
2022-11-01T00:06:00.651Z,4.65
2022-11-01T00:08:27.592Z,4.50
2022-11-01T00:11:08.356Z,4.22
2022-11-01T00:13:35.052Z,4.30
2022-11-01T00:16:01.772Z,4.80
2022-11-01T00:18:28.439Z,5.22
2022-11-01T00:20:55.176Z,4.80
2022-11-01T00:23:22.107Z,4.40
2022-11-01T00:25:48.868Z,4.97
2022-11-01T00:28:15.689Z,4.47
2022-11-01T00:30:42.479Z,4.10
2022-11-01T00:33:09.276Z,4.13
2022-11-01T00:35:39.274Z,4.82
2022-11-01T00:38:06.315Z,4.75
2022-11-01T00:40:33.219Z,4.88
2022-11-01T00:42:59.944Z,4.63
2022-11-01T00:45:26.824Z,4.43
2022-11-01T00:47:53.553Z,4.05
2022-11-01T00:50:20.332Z,4.32
2022-11-01T00:52:47.350Z,4.25
2022-11-01T00:55:16.850Z,4.35
2022-11-01T00:57:46.924Z,4.10
2022-11-01T01:00:15.129Z,3.92
2022-11-01T01:02:42.284Z,4.07
2022-11-01T01:05:10.054Z,4.28
2022-11-01T01:07:37.456Z,3.90
2022-11-01T01:10:05.471Z,4.40
2022-11-01T01:12:32.310Z,4.47
2022-11-01T01:14:59.073Z,3.83
2022-11-01T01:17:27.657Z,4.28
2022-11-01T01:19:56.761Z,4.00
2022-11-01T01:22:23.511Z,4.53
2022-11-01T01:24:50.313Z,4.00
2022-11-01T01:27:17.827Z,3.42
2022-11-01T01:29:45.426Z,3.35
2022-11-01T01:32:17.319Z,4.13
2022-11-01T01:34:44.074Z,3.95
2022-11-01T01:37:12.273Z,3.95
2022-11-01T01:39:39.098Z,4.00
2022-11-01T01:42:35.342Z,3.83
2022-11-01T01:45:05.456Z,4.22
2022-11-01T01:47:36.058Z,3.78
2022-11-01T01:50:28.081Z,3.35
2022-11-01T01:53:36.421Z,3.78
2022-11-01T01:56:10.850Z,3.85
2022-11-01T01:59:08.003Z,4.18
2022-11-01T02:01:39.741Z,3.63
2022-11-01T02:04:20.269Z,3.67
2022-11-01T02:06:48.391Z,3.97
2022-11-01T02:09:16.248Z,3.55
2022-11-01T02:11:42.940Z,3.33
2022-11-01T02:14:09.935Z,4.15
2022-11-01T02:16:49.942Z,3.50
2022-11-01T02:19:35.319Z,3.72
2022-11-01T02:22:11.046Z,3.58
2022-11-01T02:24:46.621Z,3.83
2022-11-01T02:27:23.745Z,3.75
2022-11-01T02:30:03.763Z,3.60
2022-11-01T02:32:56.112Z,3.53
2022-11-01T02:35:31.768Z,3.38
2022-11-01T02:38:29.559Z,3.28
2022-11-01T02:41:23.749Z,3.78
2022-11-01T02:43:53.332Z,3.40
2022-11-01T02:46:40.169Z,3.72
2022-11-01T02:49:10.013Z,3.13
2022-11-01T02:51:37.654Z,3.42
2022-11-01T02:54:10.613Z,3.78
2022-11-01T02:56:39.249Z,3.97
2022-11-01T02:59:10.904Z,2.97
2022-11-01T03:01:37.865Z,3.40
2022-11-01T03:04:04.883Z,3.50
2022-11-01T03:06:39.925Z,3.75
2022-11-01T03:09:13.020Z,3.92
2022-11-01T03:12:02.073Z,3.33
2022-11-01T03:14:57.699Z,3.75
2022-11-01T03:17:46.933Z,3.70
2022-11-01T03:20:25.123Z,3.38
2022-11-01T03:22:59.256Z,3.45
2022-11-01T03:25:42.979Z,3.38
2022-11-01T03:28:22.507Z,3.45
2022-11-01T03:31:07.576Z,3.67
2022-11-01T03:33:37.404Z,3.25
2022-11-01T03:36:13.573Z,3.95
2022-11-01T03:38:45.785Z,3.20
2022-11-01T03:41:16.445Z,3.72
2022-11-01T03:43:43.540Z,3.63
2022-11-01T03:46:10.449Z,3.50
2022-11-01T03:48:40.942Z,3.65
2022-11-01T03:51:07.724Z,3.55
2022-11-01T03:53:34.452Z,4.13
2022-11-01T03:56:01.321Z,3.83
2022-11-01T03:58:41.850Z,3.58
2022-11-01T04:01:09.970Z,3.30
2022-11-01T04:03:36.944Z,3.40
2022-11-01T04:06:05.223Z,3.88
2022-11-01T04:08:32.626Z,3.40
2022-11-01T04:10:59.729Z,3.47
2022-11-01T04:13:26.648Z,3.33
2022-11-01T04:16:11.928Z,3.80
2022-11-01T04:18:57.434Z,3.55
2022-11-01T04:21:26.294Z,3.38
2022-11-01T04:23:53.476Z,3.28
2022-11-01T04:26:23.805Z,3.78
2022-11-01T04:28:59.819Z,3.63
2022-11-01T04:31:30.109Z,3.17
2022-11-01T04:33:58.184Z,3.72
2022-11-01T04:36:25.256Z,3.42
2022-11-01T04:38:55.677Z,3.38
2022-11-01T04:41:24.393Z,3.17
2022-11-01T04:43:53.898Z,3.33
2022-11-01T04:46:20.758Z,3.80
2022-11-01T04:48:47.469Z,3.47
2022-11-01T04:51:14.167Z,3.03
2022-11-01T04:53:40.830Z,3.22
2022-11-01T04:56:09.048Z,3.40
2022-11-01T04:58:42.936Z,3.30
2022-11-01T05:01:12.103Z,3.20
2022-11-01T05:03:38.842Z,3.00
2022-11-01T05:06:05.768Z,3.50
2022-11-01T05:08:33.054Z,2.95
2022-11-01T05:10:59.790Z,3.13
2022-11-01T05:13:26.548Z,3.15
2022-11-01T05:16:13.903Z,3.10
2022-11-01T05:18:42.770Z,3.35
2022-11-01T05:21:09.431Z,3.70
2022-11-01T05:23:36.987Z,3.05
2022-11-01T05:26:03.806Z,3.15
2022-11-01T05:28:30.811Z,3.53
2022-11-01T05:30:58.755Z,3.10
2022-11-01T05:33:29.453Z,2.70
2022-11-01T05:35:56.251Z,3.10
2022-11-01T05:38:22.995Z,3.40
2022-11-01T05:40:50.535Z,2.90
2022-11-01T05:43:17.362Z,3.13
2022-11-01T05:45:44.664Z,2.90
2022-11-01T05:48:12.123Z,3.00
2022-11-01T05:50:38.863Z,2.90
2022-11-01T05:53:10.460Z,2.70
2022-11-01T05:55:37.548Z,2.85
2022-11-01T05:58:05.004Z,2.63
2022-11-01T06:00:33.525Z,2.55
2022-11-01T06:03:01.501Z,2.60
2022-11-01T06:05:29.155Z,3.78
2022-11-01T06:07:56.208Z,2.72
2022-11-01T06:10:23.283Z,2.83
2022-11-01T06:12:50.082Z,2.50
2022-11-01T06:15:18.194Z,2.53
2022-11-01T06:17:44.906Z,2.20
2022-11-01T06:20:12.249Z,2.47
2022-11-01T06:22:39.405Z,2.13
2022-11-01T06:25:06.950Z,2.22
2022-11-01T06:27:33.696Z,2.08
2022-11-01T06:30:00.413Z,1.90
2022-11-01T06:32:27.348Z,2.10
2022-11-01T06:34:54.086Z,2.13
2022-11-01T06:37:20.775Z,2.47
2022-11-01T06:39:48.463Z,2.15
2022-11-01T06:42:15.156Z,1.98
2022-11-01T06:44:41.978Z,1.92
2022-11-01T06:47:08.806Z,2.08
2022-11-01T06:49:35.525Z,2.55
2022-11-01T06:52:03.291Z,2.28
2022-11-01T06:54:31.910Z,2.13
2022-11-01T06:56:58.692Z,2.42
2022-11-01T06:59:25.460Z,2.80
2022-11-01T07:01:52.581Z,2.20
2022-11-01T07:04:19.475Z,2.10
2022-11-01T07:06:46.152Z,2.25
2022-11-01T07:09:13.340Z,2.05
2022-11-01T07:11:40.015Z,2.10
2022-11-01T07:14:06.726Z,2.15
2022-11-01T07:16:33.575Z,2.00
2022-11-01T07:19:00.277Z,1.58
2022-11-01T07:21:27.326Z,1.65
2022-11-01T07:23:54.315Z,2.03
2022-11-01T07:26:21.488Z,2.10
2022-11-01T07:28:48.285Z,1.65
2022-11-01T07:31:14.947Z,1.67
2022-11-01T07:33:43.229Z,1.40
2022-11-01T07:36:10.021Z,1.45
2022-11-01T07:38:37.804Z,1.17
2022-11-01T07:41:05.332Z,1.20
2022-11-01T07:43:32.101Z,1.23
2022-11-01T07:46:00.711Z,1.48
2022-11-01T07:48:27.494Z,1.58
2022-11-01T07:50:56.531Z,1.35
2022-11-01T07:53:23.254Z,1.45
2022-11-01T07:55:49.995Z,1.20
2022-11-01T07:58:19.708Z,1.42
2022-11-01T08:00:46.621Z,1.10
2022-11-01T08:03:15.511Z,1.20
2022-11-01T08:05:43.401Z,1.25
2022-11-01T08:08:10.367Z,1.20
2022-11-01T08:10:38.143Z,1.48
2022-11-01T08:13:05.957Z,1.10
2022-11-01T08:15:33.675Z,1.52
2022-11-01T08:18:01.480Z,0.98
2022-11-01T08:20:30.139Z,1.38
2022-11-01T08:22:57.367Z,1.65
2022-11-01T08:25:24.324Z,1.73
2022-11-01T08:27:51.516Z,1.40
2022-11-01T08:30:19.408Z,1.20
2022-11-01T08:32:46.859Z,1.10
2022-11-01T08:35:13.672Z,1.20
2022-11-01T08:37:50.828Z,0.95
2022-11-01T08:40:18.413Z,0.80
2022-11-01T08:42:45.371Z,1.20
2022-11-01T08:45:12.345Z,1.15
2022-11-01T08:47:39.920Z,1.20
2022-11-01T08:50:11.315Z,1.15
2022-11-01T08:52:38.432Z,1.17
2022-11-01T08:55:05.892Z,1.38
2022-11-01T08:57:32.751Z,0.90
2022-11-01T08:59:59.584Z,1.05
2022-11-01T09:02:26.695Z,1.10
2022-11-01T09:04:54.456Z,1.35
2022-11-01T09:07:23.737Z,1.00
2022-11-01T09:09:50.428Z,1.15
2022-11-01T09:12:20.681Z,1.00
2022-11-01T09:17:18.986Z,1.15
2022-11-01T09:19:54.616Z,1.10
2022-11-01T09:22:33.254Z,0.98
2022-11-01T09:25:18.692Z,1.10
2022-11-01T09:27:45.405Z,1.00
2022-11-01T09:30:12.502Z,0.93
2022-11-01T09:32:39.459Z,1.30
2022-11-01T09:35:08.840Z,1.73
2022-11-01T09:37:35.769Z,2.08
2022-11-01T09:40:03.566Z,1.30
2022-11-01T09:42:43.826Z,1.65
2022-11-01T09:45:21.491Z,1.20
2022-11-01T09:48:02.641Z,1.15
2022-11-01T09:50:36.787Z,1.20
2022-11-01T09:53:08.903Z,7.75
2022-11-01T09:55:57.886Z,1.02
2022-11-01T09:58:50.914Z,1.15
2022-11-01T10:01:41.555Z,1.38
2022-11-01T10:04:08.939Z,1.17
2022-11-01T10:06:46.489Z,1.23
2022-11-01T10:09:53.984Z,1.00
2022-11-01T10:12:29.464Z,1.17
2022-11-01T10:15:21.007Z,1.00
2022-11-01T10:17:53.529Z,1.30
2022-11-01T10:20:22.858Z,1.20
2022-11-01T10:22:50.830Z,1.63
2022-11-01T10:25:30.092Z,1.23
2022-11-01T10:28:05.209Z,0.95
2022-11-01T10:30:40.045Z,1.50
2022-11-01T10:33:44.881Z,1.50
2022-11-01T10:42:14.790Z,1.15
2022-11-01T10:44:48.715Z,1.33
2022-11-01T10:50:06.480Z,1.50
2022-11-01T10:52:56.001Z,1.38
2022-11-01T10:55:43.578Z,1.40
2022-11-01T10:58:31.721Z,1.42
2022-11-01T11:00:58.919Z,1.67
2022-11-01T11:03:31.023Z,1.50
2022-11-01T11:06:01.163Z,1.88
2022-11-01T11:08:29.264Z,1.83
2022-11-01T11:11:03.295Z,1.40
2022-11-01T11:13:31.676Z,1.35
2022-11-01T11:16:01.630Z,1.75
2022-11-01T11:18:30.678Z,1.55
2022-11-01T11:21:04.826Z,1.73
2022-11-01T11:23:34.762Z,1.67
2022-11-01T11:26:08.046Z,1.60
2022-11-01T11:28:42.630Z,1.50
2022-11-01T11:31:31.657Z,2.13
2022-11-01T11:34:12.970Z,1.50
2022-11-01T11:36:43.983Z,1.73
2022-11-01T11:39:37.208Z,1.60
2022-11-01T11:42:24.083Z,1.70
2022-11-01T11:44:55.662Z,1.40
2022-11-01T11:47:28.423Z,1.85
2022-11-01T11:49:58.564Z,1.52
2022-11-01T11:52:38.097Z,1.90
2022-11-01T11:55:06.368Z,1.90
2022-11-01T11:57:34.351Z,1.83
2022-11-01T12:00:05.878Z,1.80
2022-11-01T12:02:38.792Z,1.67
2022-11-01T12:05:18.775Z,1.83
2022-11-01T12:07:51.331Z,2.15
2022-11-01T12:10:34.492Z,1.63
2022-11-01T12:13:02.981Z,1.63
2022-11-01T12:15:38.555Z,1.65
2022-11-01T12:18:17.916Z,2.10
2022-11-01T12:20:50.464Z,1.67
2022-11-01T12:23:27.881Z,2.38
2022-11-01T12:25:55.965Z,2.08
2022-11-01T12:28:35.540Z,2.08
2022-11-01T12:31:22.431Z,1.55
2022-11-01T12:33:55.518Z,1.77
2022-11-01T12:36:32.141Z,1.50
2022-11-01T12:39:31.213Z,1.67
2022-11-01T12:42:04.530Z,1.58
2022-11-01T12:44:43.028Z,1.40
2022-11-01T12:47:30.004Z,1.58
2022-11-01T12:50:19.226Z,1.90
2022-11-01T12:53:10.729Z,1.55
2022-11-01T12:55:39.876Z,3.90
2022-11-01T12:58:13.320Z,1.50
2022-11-01T13:01:00.993Z,2.38
2022-11-01T13:03:50.723Z,1.70
2022-11-01T13:06:28.641Z,1.45
2022-11-01T13:09:04.896Z,1.70
2022-11-01T13:11:41.913Z,1.70
2022-11-01T13:14:27.176Z,1.85
2022-11-01T13:17:38.774Z,1.70
2022-11-01T13:20:31.066Z,1.42
2022-11-01T13:23:16.358Z,1.48
2022-11-01T13:25:52.066Z,1.52
2022-11-01T13:28:25.282Z,1.48
2022-11-01T13:31:06.507Z,2.03
2022-11-01T13:33:50.633Z,1.83
2022-11-01T13:36:42.172Z,1.38
2022-11-01T13:39:26.081Z,1.77
2022-11-01T13:42:32.007Z,2.38
2022-11-01T13:45:23.277Z,1.85
2022-11-01T13:48:18.309Z,1.63
2022-11-01T13:50:47.896Z,1.60
2022-11-01T13:53:51.166Z,1.98
2022-11-01T13:56:42.244Z,1.60
2022-11-01T13:59:28.221Z,1.80
2022-11-01T14:01:55.393Z,1.63
2022-11-01T14:04:22.121Z,1.45
2022-11-01T14:07:10.485Z,1.63
2022-11-01T14:09:51.633Z,2.10
2022-11-01T14:12:40.964Z,2.00
2022-11-01T14:15:15.674Z,2.00
2022-11-01T14:18:03.808Z,2.40
2022-11-01T14:20:33.550Z,1.80
2022-11-01T14:23:27.791Z,1.80
2022-11-01T14:26:22.884Z,2.05
2022-11-01T14:28:56.864Z,2.17
2022-11-01T14:33:57.537Z,2.55
2022-11-01T14:36:29.360Z,2.20
2022-11-01T14:39:06.947Z,1.73
2022-11-01T14:41:38.167Z,2.10
2022-11-01T14:44:18.201Z,2.10
2022-11-01T14:46:49.197Z,2.13
2022-11-01T14:49:45.072Z,2.65
2022-11-01T14:52:40.931Z,2.03
2022-11-01T14:55:32.424Z,2.55
2022-11-01T14:58:21.041Z,1.95
2022-11-01T15:00:54.753Z,2.17
2022-11-01T15:03:23.854Z,2.35
2022-11-01T15:05:52.775Z,2.20
2022-11-01T15:08:30.304Z,2.25
2022-11-01T15:11:01.262Z,2.40
2022-11-01T15:13:29.785Z,2.50
2022-11-01T15:16:05.574Z,2.40
2022-11-01T15:18:32.553Z,1.70
2022-11-01T15:21:01.345Z,2.00
2022-11-01T15:23:34.737Z,2.30
2022-11-01T15:26:07.275Z,2.10
2022-11-01T15:28:46.045Z,2.30
2022-11-01T15:31:13.088Z,2.50
2022-11-01T15:33:39.828Z,2.40
2022-11-01T15:36:18.491Z,2.30
2022-11-01T15:38:54.949Z,2.63
2022-11-01T15:41:35.619Z,2.40
2022-11-01T15:44:06.051Z,2.00
2022-11-01T15:46:37.898Z,2.00
2022-11-01T15:49:09.551Z,3.00
2022-11-01T15:51:42.338Z,2.33
2022-11-01T15:54:21.945Z,2.42
2022-11-01T15:56:57.793Z,2.30
2022-11-01T15:59:33.257Z,2.33
2022-11-01T16:02:03.554Z,2.42
2022-11-01T16:04:40.779Z,2.08
2022-11-01T16:07:10.548Z,2.20
2022-11-01T16:09:58.643Z,2.03
2022-11-01T16:12:34.563Z,2.33
2022-11-01T16:15:19.898Z,2.20
2022-11-01T16:17:46.953Z,2.40
2022-11-01T16:20:31.808Z,2.08
2022-11-01T16:23:09.196Z,1.83
2022-11-01T16:25:37.839Z,2.15
2022-11-01T16:28:10.639Z,2.08
2022-11-01T16:30:42.154Z,2.35
2022-11-01T16:33:24.584Z,2.17
2022-11-01T16:36:26.661Z,2.47
2022-11-01T16:38:54.734Z,2.72
2022-11-01T16:41:24.338Z,2.45
2022-11-01T16:43:57.096Z,2.67
2022-11-01T16:46:26.347Z,2.53
2022-11-01T16:49:03.561Z,2.63
2022-11-01T16:51:31.064Z,2.97
2022-11-01T16:54:00.398Z,2.10
2022-11-01T16:56:42.519Z,2.33
2022-11-01T16:59:22.667Z,2.10
2022-11-01T17:01:50.744Z,2.38
2022-11-01T17:04:19.012Z,2.53
2022-11-01T17:06:45.857Z,1.95
2022-11-01T17:09:14.569Z,2.53
2022-11-01T17:11:49.540Z,2.63
2022-11-01T17:14:19.609Z,2.58
2022-11-01T17:16:47.759Z,2.97
2022-11-01T17:19:42.781Z,2.35
2022-11-01T17:24:40.641Z,2.35
2022-11-01T17:27:07.608Z,2.42
